createdAt,value
2019-03-23T00:01:55.829Z,48.20
2019-03-23T00:04:22.365Z,48.30
2019-03-23T00:06:48.699Z,50.47
2019-03-23T00:09:15.447Z,46.30
2019-03-23T00:11:41.913Z,51.53
2019-03-23T00:14:08.199Z,49.03
2019-03-23T00:16:34.646Z,51.20
2019-03-23T00:19:01.010Z,48.50
2019-03-23T00:21:27.399Z,49.73
2019-03-23T00:23:53.935Z,50.90
2019-03-23T00:26:20.263Z,48.10
2019-03-23T00:28:46.587Z,48.10
2019-03-23T00:31:13.129Z,48.33
2019-03-23T00:33:39.464Z,46.60
2019-03-23T00:36:05.690Z,46.87
2019-03-23T00:38:32.013Z,48.20
2019-03-23T00:41:00.198Z,46.80
2019-03-23T00:43:26.614Z,46.50
2019-03-23T00:45:53.167Z,47.50
2019-03-23T00:48:19.412Z,48.03
2019-03-23T00:50:46.121Z,45.30
2019-03-23T00:53:12.452Z,43.90
2019-03-23T00:55:38.781Z,45.40
2019-03-23T00:58:05.441Z,43.43
2019-03-23T01:00:31.856Z,44.27
2019-03-23T01:02:58.284Z,45.00
2019-03-23T01:05:25.043Z,40.13
2019-03-23T01:07:51.458Z,42.83
2019-03-23T01:10:17.786Z,43.30
2019-03-23T01:12:44.118Z,45.87
2019-03-23T01:15:13.985Z,43.60
2019-03-23T01:17:40.365Z,41.80
2019-03-23T01:20:09.209Z,44.07
2019-03-23T01:22:35.582Z,42.73
2019-03-23T01:25:03.144Z,44.20
2019-03-23T01:27:29.385Z,43.13
2019-03-23T01:29:55.667Z,42.67
2019-03-23T01:32:22.133Z,44.17
2019-03-23T01:34:48.699Z,40.00
2019-03-23T01:37:15.099Z,39.60
2019-03-23T01:39:41.533Z,41.70
2019-03-23T01:42:09.695Z,42.70
2019-03-23T01:44:36.279Z,42.33
2019-03-23T01:47:03.185Z,41.80
2019-03-23T01:49:29.517Z,40.90
2019-03-23T01:51:55.951Z,40.40
2019-03-23T01:54:23.818Z,39.57
2019-03-23T01:56:50.146Z,39.60
2019-03-23T01:59:16.476Z,40.50
2019-03-23T02:01:43.041Z,42.40
2019-03-23T02:04:09.443Z,38.83
2019-03-23T02:06:35.774Z,42.83
2019-03-23T02:09:05.074Z,40.63
2019-03-23T02:11:31.405Z,36.50
2019-03-23T02:13:57.734Z,40.63
2019-03-23T02:16:24.064Z,38.23
2019-03-23T02:18:50.394Z,36.47
2019-03-23T02:21:16.725Z,36.93
2019-03-23T02:23:43.057Z,34.80
2019-03-23T02:26:09.486Z,33.27
2019-03-23T02:28:35.764Z,35.43
2019-03-23T02:31:02.088Z,33.67
2019-03-23T02:33:28.479Z,36.70
2019-03-23T02:35:54.911Z,36.47
2019-03-23T02:38:21.243Z,36.93
2019-03-23T02:40:47.682Z,38.77
2019-03-23T02:43:14.009Z,37.17
2019-03-23T02:45:40.337Z,36.23
2019-03-23T02:48:06.886Z,36.00
2019-03-23T02:50:33.244Z,39.40
2019-03-23T02:52:59.537Z,40.17
2019-03-23T02:55:25.867Z,41.13
2019-03-23T02:57:52.196Z,38.93
2019-03-23T03:00:18.542Z,39.50
2019-03-23T03:02:44.884Z,38.00
2019-03-23T03:05:11.361Z,39.03
2019-03-23T03:07:42.369Z,40.53
2019-03-23T03:10:10.264Z,39.57
2019-03-23T03:12:36.843Z,38.30
2019-03-23T03:15:05.874Z,40.70
2019-03-23T03:17:32.266Z,39.37
2019-03-23T03:19:58.594Z,35.67
2019-03-23T03:22:24.926Z,40.60
2019-03-23T03:24:51.356Z,38.00
2019-03-23T03:27:17.685Z,39.20
2019-03-23T03:29:43.974Z,41.73
2019-03-23T03:32:10.346Z,39.00
2019-03-23T03:34:36.677Z,39.23
2019-03-23T03:37:03.110Z,39.57
2019-03-23T03:39:29.541Z,37.93
2019-03-23T03:41:55.819Z,40.33
2019-03-23T03:44:22.204Z,41.67
2019-03-23T03:46:48.533Z,40.87
2019-03-23T03:49:14.965Z,40.83
2019-03-23T03:51:41.298Z,39.83
2019-03-23T03:54:07.564Z,39.23
2019-03-23T03:56:33.958Z,40.50
2019-03-23T03:59:00.393Z,40.70
2019-03-23T04:01:27.038Z,42.00
2019-03-23T04:03:53.461Z,41.97
2019-03-23T04:06:19.801Z,43.20
2019-03-23T04:08:46.083Z,40.67
2019-03-23T04:11:12.403Z,41.23
2019-03-23T04:13:38.683Z,40.63
2019-03-23T04:16:05.212Z,41.97
2019-03-23T04:18:33.222Z,40.13
2019-03-23T04:20:59.614Z,40.43
2019-03-23T04:23:25.815Z,42.80
2019-03-23T04:25:52.174Z,41.33
2019-03-23T04:28:18.418Z,41.67
2019-03-23T04:30:44.718Z,42.80
2019-03-23T04:33:11.009Z,40.07
2019-03-23T04:35:37.395Z,43.60
2019-03-23T04:38:03.620Z,38.43
2019-03-23T04:40:29.949Z,40.20
2019-03-23T04:42:56.278Z,39.57
2019-03-23T04:45:22.609Z,39.40
2019-03-23T04:47:48.873Z,37.70
2019-03-23T04:50:15.173Z,41.60
2019-03-23T04:52:41.497Z,40.30
2019-03-23T04:55:12.526Z,38.47
2019-03-23T04:57:39.028Z,40.20
2019-03-23T05:00:07.926Z,39.37
2019-03-23T05:02:34.305Z,39.63
2019-03-23T05:05:00.633Z,40.77
2019-03-23T05:07:26.868Z,38.83
2019-03-23T05:09:53.285Z,38.17
2019-03-23T05:12:19.505Z,38.53
2019-03-23T05:14:45.846Z,38.30
2019-03-23T05:17:12.515Z,36.30
2019-03-23T05:19:38.913Z,38.03
2019-03-23T05:22:05.244Z,37.60
2019-03-23T05:24:31.504Z,38.13
2019-03-23T05:26:57.823Z,39.83
2019-03-23T05:29:24.133Z,36.70
2019-03-23T05:31:50.463Z,36.73
2019-03-23T05:34:16.736Z,36.83
2019-03-23T05:36:43.124Z,36.17
2019-03-23T05:39:09.459Z,38.47
2019-03-23T05:41:35.790Z,38.60
2019-03-23T05:44:02.473Z,37.83
2019-03-23T05:46:28.855Z,37.80
2019-03-23T05:48:55.188Z,34.53
2019-03-23T05:51:21.842Z,36.97
2019-03-23T05:53:48.256Z,35.13
2019-03-23T05:56:14.641Z,35.93
2019-03-23T05:58:41.038Z,33.70
2019-03-23T06:01:07.557Z,35.57
2019-03-23T06:03:33.887Z,36.37
2019-03-23T06:06:00.219Z,35.93
2019-03-23T06:08:26.764Z,37.03
2019-03-23T06:10:53.088Z,36.87
2019-03-23T06:13:19.513Z,36.57
2019-03-23T06:15:45.846Z,39.80
2019-03-23T06:18:12.176Z,37.87
2019-03-23T06:20:38.508Z,37.27
2019-03-23T06:23:05.058Z,38.03
2019-03-23T06:25:31.481Z,36.70
2019-03-23T06:27:57.803Z,35.63
2019-03-23T06:30:24.064Z,35.50
2019-03-23T06:32:50.465Z,38.30
2019-03-23T06:35:17.119Z,35.23
2019-03-23T06:37:43.430Z,37.27
2019-03-23T06:40:09.910Z,37.80
2019-03-23T06:42:36.505Z,35.33
2019-03-23T06:45:08.668Z,37.60
2019-03-23T06:47:35.314Z,36.27
2019-03-23T06:50:03.177Z,36.40
2019-03-23T06:52:29.509Z,36.07
2019-03-23T06:54:56.058Z,37.23
2019-03-23T06:57:22.470Z,36.73
2019-03-23T06:59:48.808Z,37.90
2019-03-23T07:02:15.108Z,37.37
2019-03-23T07:04:41.463Z,36.07
2019-03-23T07:07:07.811Z,37.83
2019-03-23T07:09:34.124Z,38.03
2019-03-23T07:12:00.457Z,35.57
2019-03-23T07:14:26.746Z,37.77
2019-03-23T07:16:53.116Z,36.70
2019-03-23T07:19:19.450Z,36.93
2019-03-23T07:21:45.875Z,36.93
2019-03-23T07:24:12.207Z,35.73
2019-03-23T07:26:38.495Z,36.60
2019-03-23T07:29:04.803Z,37.60
2019-03-23T07:31:31.199Z,36.23
2019-03-23T07:33:59.305Z,37.17
2019-03-23T07:36:25.599Z,37.30
2019-03-23T07:38:51.932Z,34.70
2019-03-23T07:41:18.268Z,35.10
2019-03-23T07:43:44.590Z,37.73
2019-03-23T07:46:10.858Z,37.37
2019-03-23T07:48:37.251Z,35.60
2019-03-23T07:51:03.683Z,36.37
2019-03-23T07:53:30.014Z,34.17
2019-03-23T07:55:56.344Z,36.03
2019-03-23T07:58:22.675Z,35.67
2019-03-23T08:00:49.259Z,34.83
2019-03-23T08:03:15.867Z,35.10
2019-03-23T08:05:42.500Z,36.03
2019-03-23T08:08:08.816Z,34.13
2019-03-23T08:10:35.208Z,34.13
2019-03-23T08:13:01.588Z,36.13
2019-03-23T08:15:29.783Z,36.40
2019-03-23T08:17:56.082Z,33.97
2019-03-23T08:20:23.226Z,33.67
2019-03-23T08:22:49.518Z,35.10
2019-03-23T08:25:15.790Z,34.17
2019-03-23T08:27:42.009Z,32.97
2019-03-23T08:30:08.758Z,32.87
2019-03-23T08:32:35.088Z,33.17
2019-03-23T08:35:01.434Z,34.70
2019-03-23T08:37:27.728Z,35.53
2019-03-23T08:39:54.081Z,37.23
2019-03-23T08:42:20.421Z,35.00
2019-03-23T08:44:46.740Z,33.33
2019-03-23T08:47:13.051Z,33.90
2019-03-23T08:49:39.362Z,34.80
2019-03-23T08:52:05.806Z,35.67
2019-03-23T08:54:32.441Z,33.13
2019-03-23T08:56:58.759Z,34.67
2019-03-23T08:59:25.407Z,34.07
2019-03-23T09:01:51.695Z,34.47
2019-03-23T09:04:18.057Z,33.40
2019-03-23T09:06:45.104Z,35.47
2019-03-23T09:09:11.305Z,36.87
2019-03-23T09:11:37.976Z,34.07
2019-03-23T09:14:04.403Z,34.97
2019-03-23T09:16:30.731Z,34.33
2019-03-23T09:18:57.062Z,35.17
2019-03-23T09:21:23.696Z,36.57
2019-03-23T09:23:49.930Z,34.13
2019-03-23T09:26:16.195Z,35.67
2019-03-23T09:28:42.503Z,34.77
2019-03-23T09:31:08.921Z,36.47
2019-03-23T09:33:35.166Z,34.80
2019-03-23T09:36:01.808Z,32.33
2019-03-23T09:38:28.114Z,35.20
2019-03-23T09:40:54.445Z,34.63
2019-03-23T09:43:20.764Z,33.10
2019-03-23T09:45:47.067Z,35.67
2019-03-23T09:48:13.754Z,34.50
2019-03-23T09:50:40.392Z,34.43
2019-03-23T09:53:06.812Z,33.87
2019-03-23T09:55:33.144Z,32.83
2019-03-23T09:57:59.417Z,34.30
2019-03-23T10:00:25.804Z,32.83
2019-03-23T10:02:52.136Z,33.57
2019-03-23T10:05:18.464Z,33.50
2019-03-23T10:07:44.795Z,33.47
2019-03-23T10:10:20.969Z,33.10
2019-03-23T10:12:39.301Z,33.17
2019-03-23T10:15:08.702Z,32.63
2019-03-23T10:17:35.136Z,33.20
2019-03-23T10:20:03.341Z,32.03
2019-03-23T10:22:29.657Z,33.13
2019-03-23T10:24:56.072Z,32.93
2019-03-23T10:27:22.403Z,33.00
2019-03-23T10:29:48.732Z,31.53
2019-03-23T10:32:15.062Z,30.67
2019-03-23T10:34:41.612Z,31.97
2019-03-23T10:37:08.252Z,30.50
2019-03-23T10:39:34.565Z,32.43
2019-03-23T10:42:00.895Z,33.70
2019-03-23T10:44:27.438Z,32.97
2019-03-23T10:46:53.737Z,30.33
2019-03-23T10:49:20.092Z,30.87
2019-03-23T10:51:46.532Z,31.07
2019-03-23T10:54:12.817Z,31.27
2019-03-23T10:56:39.184Z,32.07
2019-03-23T10:59:05.737Z,32.50
2019-03-23T11:01:32.370Z,31.70
2019-03-23T11:03:58.686Z,30.70
2019-03-23T11:06:25.019Z,31.33
2019-03-23T11:08:51.674Z,34.07
2019-03-23T11:11:18.089Z,32.67
2019-03-23T11:13:44.377Z,30.40
2019-03-23T11:16:10.805Z,32.60
2019-03-23T11:18:37.870Z,32.07
2019-03-23T11:21:04.219Z,29.70
2019-03-23T11:23:31.466Z,29.97
2019-03-23T11:25:57.695Z,30.73
2019-03-23T11:28:24.042Z,31.60
2019-03-23T11:30:50.375Z,29.40
2019-03-23T11:33:16.701Z,29.23
2019-03-23T11:35:43.138Z,31.00
2019-03-23T11:38:09.569Z,30.13
2019-03-23T11:40:35.999Z,29.03
2019-03-23T11:43:02.638Z,30.13
2019-03-23T11:45:28.969Z,30.17
2019-03-23T11:47:55.212Z,30.60
2019-03-23T11:50:41.444Z,29.87
2019-03-23T11:53:07.733Z,29.93
2019-03-23T11:55:34.159Z,30.27
2019-03-23T11:58:00.483Z,29.03
2019-03-23T12:00:26.839Z,31.47
2019-03-23T12:02:53.254Z,28.97
2019-03-23T12:05:19.528Z,30.20
2019-03-23T12:07:45.910Z,29.37
2019-03-23T12:10:12.638Z,30.30
2019-03-23T12:12:39.088Z,28.73
2019-03-23T12:15:07.276Z,29.10
2019-03-23T12:17:33.795Z,29.33
2019-03-23T12:20:00.180Z,28.53
2019-03-23T12:22:26.673Z,29.80
2019-03-23T12:24:52.971Z,27.90
2019-03-23T12:27:19.317Z,27.93
2019-03-23T12:29:45.559Z,27.53
2019-03-23T12:32:11.894Z,27.07
2019-03-23T12:34:38.409Z,26.43
2019-03-23T12:37:04.686Z,30.03
2019-03-23T12:39:31.007Z,28.20
2019-03-23T12:41:57.605Z,25.93
2019-03-23T12:44:23.932Z,27.87
2019-03-23T12:46:50.194Z,25.20
2019-03-23T12:49:16.499Z,28.93
2019-03-23T12:51:42.822Z,27.30
2019-03-23T12:54:09.092Z,26.90
2019-03-23T12:56:35.414Z,26.10
2019-03-23T12:59:01.814Z,24.70
2019-03-23T13:01:28.246Z,24.63
2019-03-23T13:03:54.577Z,26.53
2019-03-23T13:06:20.908Z,27.37
2019-03-23T13:08:47.236Z,28.27
2019-03-23T13:11:23.049Z,27.93
2019-03-23T13:13:41.638Z,25.77
2019-03-23T13:16:07.970Z,25.87
2019-03-23T13:18:34.326Z,28.77
2019-03-23T13:21:02.905Z,27.60
2019-03-23T13:23:30.673Z,26.00
2019-03-23T13:25:56.955Z,24.07
2019-03-23T13:28:23.307Z,26.53
2019-03-23T13:30:49.637Z,26.00
2019-03-23T13:33:15.967Z,24.77
2019-03-23T13:35:42.247Z,25.97
2019-03-23T13:38:08.850Z,27.07
2019-03-23T13:40:35.265Z,25.03
2019-03-23T13:43:03.556Z,24.33
2019-03-23T13:45:31.453Z,26.40
2019-03-23T13:47:57.958Z,27.53
2019-03-23T13:50:25.972Z,27.47
2019-03-23T13:52:52.241Z,26.23
2019-03-23T13:55:24.614Z,26.23
2019-03-23T13:57:50.945Z,25.57
2019-03-23T14:00:17.322Z,27.30
2019-03-23T14:02:43.719Z,28.97
2019-03-23T14:05:16.072Z,27.50
2019-03-23T14:07:38.110Z,26.63
2019-03-23T14:10:04.748Z,25.77
2019-03-23T14:12:31.050Z,26.67
2019-03-23T14:14:57.348Z,26.23
2019-03-23T14:17:23.743Z,27.43
2019-03-23T14:19:50.071Z,26.63
2019-03-23T14:22:16.503Z,25.33
2019-03-23T14:24:42.933Z,25.97
2019-03-23T14:27:09.578Z,25.83
2019-03-23T14:29:35.803Z,26.43
2019-03-23T14:32:02.231Z,24.53
2019-03-23T14:34:28.525Z,26.47
2019-03-23T14:36:54.834Z,24.10
2019-03-23T14:39:21.141Z,24.17
2019-03-23T14:41:47.446Z,25.67
2019-03-23T14:44:13.778Z,27.30
2019-03-23T14:46:40.060Z,26.40
2019-03-23T14:49:06.387Z,24.63
2019-03-23T14:51:32.874Z,25.23
2019-03-23T14:53:59.202Z,26.03
2019-03-23T14:56:25.636Z,26.33
2019-03-23T14:58:51.934Z,25.33
2019-03-23T15:01:18.402Z,25.27
2019-03-23T15:03:44.627Z,26.23
2019-03-23T15:06:10.924Z,25.27
2019-03-23T15:08:37.295Z,25.23
2019-03-23T15:11:03.550Z,23.77
2019-03-23T15:13:29.947Z,25.57
2019-03-23T15:15:56.278Z,25.60
2019-03-23T15:18:22.608Z,25.73
2019-03-23T15:20:48.937Z,22.57
2019-03-23T15:23:15.370Z,23.17
2019-03-23T15:25:41.656Z,22.03
2019-03-23T15:28:07.956Z,22.70
2019-03-23T15:30:34.364Z,21.40
2019-03-23T15:33:00.794Z,20.77
2019-03-23T15:35:27.119Z,17.27
2019-03-23T15:37:53.424Z,17.37
2019-03-23T15:40:19.760Z,17.03
2019-03-23T15:42:46.440Z,17.93
2019-03-23T15:45:12.742Z,15.37
2019-03-23T15:47:39.084Z,14.57
2019-03-23T15:50:06.236Z,12.67
2019-03-23T15:52:33.412Z,11.30
2019-03-23T15:54:59.715Z,10.10
2019-03-23T15:57:26.262Z,10.30
2019-03-23T15:59:54.262Z,9.73
2019-03-23T16:02:20.855Z,9.87
2019-03-23T16:04:47.183Z,8.93
2019-03-23T16:07:13.419Z,8.63
2019-03-23T16:09:39.731Z,8.50
2019-03-23T16:12:06.075Z,8.20
2019-03-23T16:14:32.403Z,7.10
2019-03-23T16:16:58.622Z,8.37
2019-03-23T16:19:24.908Z,6.90
2019-03-23T16:21:51.198Z,6.80
2019-03-23T16:24:17.510Z,6.63
2019-03-23T16:26:43.907Z,7.20
2019-03-23T16:29:10.283Z,6.33
2019-03-23T16:31:36.615Z,6.83
2019-03-23T16:34:03.373Z,5.77
2019-03-23T16:36:29.784Z,6.00
2019-03-23T16:38:56.108Z,6.50
2019-03-23T16:41:22.823Z,5.23
2019-03-23T16:43:49.189Z,5.57
2019-03-23T16:46:15.428Z,4.20
2019-03-23T16:48:41.953Z,4.43
2019-03-23T16:51:08.281Z,4.33
2019-03-23T16:53:36.295Z,3.80
2019-03-23T16:56:02.591Z,3.93
2019-03-23T16:58:28.895Z,3.47
2019-03-23T17:00:55.238Z,3.10
2019-03-23T17:03:21.571Z,3.40
2019-03-23T17:06:07.665Z,3.80
2019-03-23T17:08:34.383Z,3.93
2019-03-23T17:11:00.732Z,4.10
2019-03-23T17:13:27.070Z,5.00
2019-03-23T17:15:53.556Z,3.90
2019-03-23T17:18:19.907Z,4.00
2019-03-23T17:20:46.463Z,3.60
2019-03-23T17:23:12.723Z,3.30
2019-03-23T17:25:39.126Z,4.30
2019-03-23T17:28:05.353Z,4.30
2019-03-23T17:30:31.683Z,5.20
2019-03-23T17:32:58.023Z,4.50
2019-03-23T17:35:24.343Z,4.90
2019-03-23T17:37:50.674Z,4.40
2019-03-23T17:40:17.005Z,4.60
2019-03-23T17:42:43.335Z,4.90
2019-03-23T17:45:09.645Z,5.00
2019-03-23T17:47:36.114Z,5.37
2019-03-23T17:50:03.760Z,5.40
2019-03-23T17:52:30.417Z,5.77
2019-03-23T17:54:56.828Z,6.60
2019-03-23T17:57:23.233Z,6.53
2019-03-23T17:59:49.708Z,6.57
2019-03-23T18:02:17.154Z,6.00
2019-03-23T18:04:43.585Z,6.97
2019-03-23T18:07:09.913Z,6.73
2019-03-23T18:09:36.257Z,6.43
2019-03-23T18:12:02.722Z,5.80
2019-03-23T18:14:29.215Z,6.80
2019-03-23T18:16:55.545Z,6.70
2019-03-23T18:19:21.978Z,6.93
2019-03-23T18:21:48.422Z,7.07
2019-03-23T18:24:14.740Z,7.13
2019-03-23T18:26:41.040Z,6.30
2019-03-23T18:29:07.934Z,6.23
2019-03-23T18:31:34.344Z,7.03
2019-03-23T18:34:00.676Z,6.83
2019-03-23T18:36:28.250Z,6.87
2019-03-23T18:38:54.483Z,6.50
2019-03-23T18:41:20.784Z,7.00
2019-03-23T18:43:48.027Z,6.03
2019-03-23T18:46:16.050Z,6.57
2019-03-23T18:48:42.361Z,5.80
2019-03-23T18:51:08.791Z,6.27
2019-03-23T18:53:35.112Z,6.23
2019-03-23T18:56:01.438Z,6.47
2019-03-23T18:58:27.869Z,6.57
2019-03-23T19:00:54.459Z,6.50
2019-03-23T19:03:21.049Z,5.63
2019-03-23T19:05:47.373Z,6.20
2019-03-23T19:08:13.704Z,5.83
2019-03-23T19:10:40.061Z,6.73
2019-03-23T19:13:06.462Z,6.33
2019-03-23T19:15:33.495Z,5.90
2019-03-23T19:17:59.846Z,6.03
2019-03-23T19:20:26.173Z,6.07
2019-03-23T19:22:52.475Z,7.63
2019-03-23T19:25:18.969Z,6.37
2019-03-23T19:27:45.297Z,6.30
2019-03-23T19:30:12.108Z,6.63
2019-03-23T19:32:38.438Z,6.30
2019-03-23T19:35:05.285Z,6.87
2019-03-23T19:37:31.616Z,6.03
2019-03-23T19:39:57.867Z,5.17
2019-03-23T19:42:24.272Z,4.80
2019-03-23T19:44:50.568Z,5.00
2019-03-23T19:47:17.243Z,4.67
2019-03-23T19:49:43.572Z,4.63
2019-03-23T19:52:09.887Z,4.47
2019-03-23T19:54:36.230Z,5.47
2019-03-23T19:57:02.667Z,5.53
2019-03-23T19:59:29.318Z,4.67
2019-03-23T20:01:55.631Z,4.23
2019-03-23T20:04:22.009Z,4.70
2019-03-23T20:06:48.622Z,4.80
2019-03-23T20:09:15.035Z,4.00
2019-03-23T20:11:41.445Z,4.10
2019-03-23T20:14:08.120Z,4.30
2019-03-23T20:16:34.639Z,5.57
2019-03-23T20:19:00.967Z,4.90
2019-03-23T20:21:27.299Z,4.47
2019-03-23T20:23:53.587Z,4.30
2019-03-23T20:26:19.996Z,4.47
2019-03-23T20:28:46.392Z,4.03
2019-03-23T20:31:12.610Z,6.00
2019-03-23T20:33:38.932Z,4.13
2019-03-23T20:36:05.282Z,4.60
2019-03-23T20:38:31.720Z,3.73
2019-03-23T20:40:58.151Z,3.67
2019-03-23T20:43:24.477Z,4.83
2019-03-23T20:45:50.949Z,5.53
2019-03-23T20:48:17.856Z,4.47
2019-03-23T20:50:44.367Z,3.90
2019-03-23T20:53:13.979Z,4.57
2019-03-23T20:55:40.680Z,4.57
2019-03-23T20:58:07.067Z,4.30
2019-03-23T21:00:53.147Z,5.23
2019-03-23T21:03:19.448Z,3.70
2019-03-23T21:05:45.782Z,4.50
2019-03-23T21:08:12.101Z,4.40
2019-03-23T21:10:38.446Z,4.20
2019-03-23T21:13:04.783Z,3.53
2019-03-23T21:15:31.311Z,5.13
2019-03-23T21:17:57.593Z,6.03
2019-03-23T21:20:23.860Z,4.20
2019-03-23T21:22:50.283Z,4.50
2019-03-23T21:25:16.577Z,4.60
2019-03-23T21:27:43.065Z,4.00
2019-03-23T21:30:12.203Z,4.80
2019-03-23T21:32:38.517Z,4.50
2019-03-23T21:35:05.078Z,4.63
2019-03-23T21:37:31.334Z,4.80
2019-03-23T21:39:57.783Z,4.60
2019-03-23T21:42:24.071Z,4.27
2019-03-23T21:44:50.451Z,4.67
2019-03-23T21:47:16.790Z,4.53
2019-03-23T21:49:43.210Z,4.93
2019-03-23T21:52:09.508Z,4.23
2019-03-23T21:54:35.873Z,4.50
2019-03-23T21:57:02.490Z,3.80
2019-03-23T21:59:28.768Z,4.60
2019-03-23T22:01:56.298Z,4.63
2019-03-23T22:04:22.587Z,4.10
2019-03-23T22:06:49.591Z,4.70
2019-03-23T22:09:16.304Z,4.37
2019-03-23T22:11:42.674Z,5.27
2019-03-23T22:14:08.977Z,5.03
2019-03-23T22:16:35.300Z,3.70
2019-03-23T22:19:01.634Z,4.30
2019-03-23T22:21:27.962Z,4.53
2019-03-23T22:23:54.966Z,3.90
2019-03-23T22:26:22.571Z,4.27
2019-03-23T22:28:48.858Z,4.00
2019-03-23T22:31:16.142Z,4.17
2019-03-23T22:33:42.583Z,4.00
2019-03-23T22:36:08.919Z,4.50
2019-03-23T22:38:35.360Z,4.53
2019-03-23T22:41:01.782Z,4.13
2019-03-23T22:43:28.114Z,4.83
2019-03-23T22:45:54.441Z,4.97
2019-03-23T22:48:21.089Z,4.70
2019-03-23T22:50:47.408Z,4.30
2019-03-23T22:53:13.800Z,3.87
2019-03-23T22:55:40.173Z,4.37
2019-03-23T22:58:06.708Z,4.77
2019-03-23T23:00:46.278Z,4.60
2019-03-23T23:03:13.323Z,4.83
2019-03-23T23:05:40.138Z,4.20
2019-03-23T23:08:06.576Z,4.77
2019-03-23T23:10:32.820Z,5.17
2019-03-23T23:12:59.159Z,4.27
2019-03-23T23:15:25.560Z,4.27
2019-03-23T23:17:53.355Z,4.87
2019-03-23T23:20:19.859Z,4.97
2019-03-23T23:22:46.293Z,4.97
2019-03-23T23:25:12.617Z,5.23
2019-03-23T23:27:40.625Z,5.20
2019-03-23T23:30:08.624Z,4.77
2019-03-23T23:32:35.504Z,4.80
2019-03-23T23:35:01.862Z,4.57
2019-03-23T23:37:28.133Z,5.50
2019-03-23T23:39:54.438Z,5.00
2019-03-23T23:42:20.827Z,4.67
2019-03-23T23:44:47.168Z,4.90
2019-03-23T23:47:13.445Z,4.57
2019-03-23T23:49:39.719Z,5.33
2019-03-23T23:52:06.047Z,4.27
2019-03-23T23:54:32.696Z,4.30
2019-03-23T23:56:59.008Z,4.33
2019-03-23T23:59:27.688Z,4.43
